Time;durP1;ratioP1;P1;durP2;ratioP2;P2;SDS_P1;SDS_P2;PMS_P1;PMS_P2;Temp;Humidity;BMP_temperature;BMP_pressure;BME280_temperature;BME280_humidity;BME280_pressure;Samples;Min_cycle;Max_cycle;Signal;HPM_P1;HPM_P2
2023/06/18 00:01:50;;;;;;;;;;;;;;;;;;5227884;22;20217;-59
2023/06/18 00:04:11;;;;;;;3.95;3.83;;;;;;;;;;5227438;22;19963;-59
2023/06/18 00:06:31;;;;;;;3.75;3.65;;;;;;;;;;5227381;22;20041;-60
2023/06/18 00:08:51;;;;;;;3.60;3.50;;;;;;;;;;5227413;22;20065;-59
2023/06/18 00:11:11;;;;;;;3.13;3.03;;;;;;;;;;5227423;22;20213;-59
2023/06/18 00:13:32;;;;;;;7.32;6.57;;;;;;;;;;5227343;22;20065;-58
2023/06/18 00:15:53;;;;;;;6.53;6.00;;;;;;;;;;5227341;22;20097;-58
2023/06/18 00:18:14;;;;;;;4.95;3.95;;;;;;;;;;5227452;22;20030;-59
2023/06/18 00:20:34;;;;;;;3.58;3.47;;;;;;;;;;5204553;22;20022;-59
2023/06/18 00:22:54;;;;;;;3.75;3.55;;;;;;;;;;5227311;22;20083;-59
2023/06/18 00:25:15;;;;;;;4.00;3.90;;;;;;;;;;5227303;22;20071;-58
2023/06/18 00:27:36;;;;;;;3.63;3.42;;;;;;;;;;5227399;22;20026;-58
2023/06/18 00:29:56;;;;;;;3.47;3.38;;;;;;;;;;5227155;22;20357;-59
2023/06/18 00:32:19;;;;;;;3.47;3.22;;;;;;;;;;5227286;22;20065;-59
2023/06/18 00:34:41;;;;;;;3.22;2.97;;;;;;;;;;5227415;22;20022;-58
2023/06/18 00:37:02;;;;;;;3.40;3.15;;;;;;;;;;5227296;22;20022;-59
2023/06/18 00:39:23;;;;;;;3.85;3.65;;;;;;;;;;5227299;22;20046;-58
2023/06/18 00:41:46;;;;;;;3.55;3.45;;;;;;;;;;5227390;22;20058;-58
2023/06/18 00:44:08;;;;;;;4.57;4.38;;;;;;;;;;5227271;22;20245;-58
2023/06/18 00:46:30;;;;;;;4.32;4.03;;;;;;;;;;5227165;22;20026;-59
2023/06/18 00:48:51;;;;;;;4.53;4.43;;;;;;;;;;5227206;22;20050;-58
2023/06/18 00:51:12;;;;;;;4.47;4.28;;;;;;;;;;5227142;22;20284;-58
2023/06/18 00:53:33;;;;;;;4.60;4.50;;;;;;;;;;5227200;22;20057;-58
2023/06/18 00:55:53;;;;;;;3.97;3.78;;;;;;;;;;5227096;22;20087;-58
2023/06/18 00:58:14;;;;;;;4.68;4.28;;;;;;;;;;5227244;22;20022;-59
2023/06/18 01:00:34;;;;;;;4.28;4.13;;;;;;;;;;5227324;22;20329;-58
2023/06/18 01:02:55;;;;;;;3.88;3.60;;;;;;;;;;5227184;22;20026;-58
2023/06/18 01:05:17;;;;;;;5.18;5.03;;;;;;;;;;5225606;22;20031;-58
2023/06/18 01:07:39;;;;;;;5.72;5.43;;;;;;;;;;5226659;22;20249;-58
2023/06/18 01:10:07;;;;;;;3.97;3.88;;;;;;;;;;5226365;22;20101;-58
2023/06/18 01:12:28;;;;;;;5.40;4.80;;;;;;;;;;5226445;22;20252;-58
2023/06/18 01:14:50;;;;;;;6.43;5.82;;;;;;;;;;5226553;22;20027;-58
2023/06/18 01:17:11;;;;;;;8.02;7.38;;;;;;;;;;5226518;22;20234;-58
2023/06/18 01:19:32;;;;;;;6.20;5.70;;;;;;;;;;5226460;22;20325;-59
2023/06/18 01:21:56;;;;;;;5.88;5.43;;;;;;;;;;5226722;22;20075;-58
2023/06/18 01:24:19;;;;;;;5.05;4.85;;;;;;;;;;5226475;22;20053;-58
2023/06/18 01:26:44;;;;;;;4.80;4.63;;;;;;;;;;5226318;22;20060;-59
2023/06/18 01:29:10;;;;;;;4.85;4.65;;;;;;;;;;5226476;22;20068;-59
2023/06/18 01:31:39;;;;;;;4.15;3.95;;;;;;;;;;5226443;22;20022;-58
2023/06/18 01:33:59;;;;;;;4.60;4.40;;;;;;;;;;5226447;22;20336;-58
2023/06/18 01:36:39;;;;;;;3.83;3.70;;;;;;;;;;5226316;22;20070;-58
2023/06/18 01:39:03;;;;;;;4.57;4.28;;;;;;;;;;5226392;22;20025;-58
2023/06/18 01:41:27;;;;;;;3.80;3.67;;;;;;;;;;5226301;22;20034;-59
2023/06/18 01:43:52;;;;;;;3.88;3.72;;;;;;;;;;5226402;22;20061;-58
2023/06/18 01:46:15;;;;;;;4.10;4.00;;;;;;;;;;5226308;22;20025;-58
2023/06/18 01:48:40;;;;;;;3.58;3.47;;;;;;;;;;5226363;22;20211;-58
2023/06/18 01:51:01;;;;;;;4.63;4.30;;;;;;;;;;5226240;22;20352;-59
2023/06/18 01:53:22;;;;;;;9.93;8.30;;;;;;;;;;5226381;22;20071;-58
2023/06/18 01:55:44;;;;;;;6.88;6.38;;;;;;;;;;5224450;22;20030;-58
2023/06/18 01:58:06;;;;;;;5.35;5.18;;;;;;;;;;5226259;22;20033;-58
2023/06/18 02:00:26;;;;;;;5.50;5.30;;;;;;;;;;5226296;22;20094;-59
2023/06/18 02:02:47;;;;;;;4.70;4.40;;;;;;;;;;5226183;22;20058;-58
2023/06/18 02:05:07;;;;;;;3.78;3.63;;;;;;;;;;5226181;22;20333;-59
2023/06/18 02:07:27;;;;;;;5.95;3.15;;;;;;;;;;5226272;22;20026;-58
2023/06/18 02:09:48;;;;;;;5.35;4.95;;;;;;;;;;5227126;22;20033;-58
2023/06/18 02:12:09;;;;;;;4.32;4.18;;;;;;;;;;5227180;22;20022;-58
2023/06/18 02:14:30;;;;;;;5.28;5.07;;;;;;;;;;5227131;22;20060;-58
2023/06/18 02:16:55;;;;;;;4.50;4.18;;;;;;;;;;5227256;22;20053;-58
2023/06/18 02:19:15;;;;;;;5.00;4.72;;;;;;;;;;5227282;22;20026;-58
2023/06/18 02:21:35;;;;;;;4.47;4.38;;;;;;;;;;5227230;22;20056;-58
2023/06/18 02:23:56;;;;;;;5.28;5.07;;;;;;;;;;5227388;22;20045;-58
2023/06/18 02:26:17;;;;;;;5.68;5.32;;;;;;;;;;5227146;22;20034;-58
2023/06/18 02:28:37;;;;;;;5.50;5.28;;;;;;;;;;5227172;22;20088;-58
2023/06/18 02:30:58;;;;;;;5.25;4.70;;;;;;;;;;5227175;22;20025;-58
2023/06/18 02:33:19;;;;;;;4.88;4.72;;;;;;;;;;5227202;22;20381;-58
2023/06/18 02:35:39;;;;;;;5.35;5.22;;;;;;;;;;5227170;22;20106;-58
2023/06/18 02:38:00;;;;;;;4.75;4.57;;;;;;;;;;5227182;22;20082;-58
2023/06/18 02:40:21;;;;;;;5.13;4.90;;;;;;;;;;5227056;22;20022;-58
2023/06/18 02:42:48;;;;;;;5.68;5.30;;;;;;;;;;5227091;22;20222;-58
2023/06/18 02:45:08;;;;;;;5.10;4.88;;;;;;;;;;5227134;22;20082;-58
2023/06/18 02:47:29;;;;;;;4.75;4.65;;;;;;;;;;5225572;22;20034;-58
2023/06/18 02:49:49;;;;;;;5.20;5.10;;;;;;;;;;5226938;22;20023;-58
2023/06/18 02:52:10;;;;;;;5.95;5.60;;;;;;;;;;5227102;22;20092;-58
2023/06/18 02:54:30;;;;;;;5.85;5.43;;;;;;;;;;5227097;22;20030;-58
2023/06/18 02:56:50;;;;;;;6.20;6.03;;;;;;;;;;5227059;22;20221;-58
2023/06/18 02:59:10;;;;;;;4.78;4.68;;;;;;;;;;5205384;22;20050;-58
2023/06/18 03:01:31;;;;;;;5.60;5.13;;;;;;;;;;5227106;22;20360;-58
2023/06/18 03:03:53;;;;;;;5.13;4.93;;;;;;;;;;5227124;22;20030;-58
2023/06/18 03:06:14;;;;;;;4.97;4.88;;;;;;;;;;5226914;22;20033;-58
2023/06/18 03:08:34;;;;;;;4.72;4.47;;;;;;;;;;5227008;22;20057;-58
2023/06/18 03:10:54;;;;;;;4.82;4.63;;;;;;;;;;5226875;22;20266;-58
2023/06/18 03:13:15;;;;;;;5.18;4.90;;;;;;;;;;5227074;22;20022;-58
2023/06/18 03:15:35;;;;;;;5.18;4.88;;;;;;;;;;5226985;22;20025;-58
2023/06/18 03:17:56;;;;;;;5.57;5.25;;;;;;;;;;5227091;22;20103;-58
2023/06/18 03:20:18;;;;;;;5.88;5.63;;;;;;;;;;5226298;22;20329;-58
2023/06/18 03:22:38;;;;;;;4.95;4.65;;;;;;;;;;5226982;22;20076;-58
2023/06/18 03:25:00;;;;;;;5.40;5.15;;;;;;;;;;5227080;22;20022;-58
2023/06/18 03:27:20;;;;;;;6.10;5.90;;;;;;;;;;5226922;22;20026;-58
2023/06/18 03:29:41;;;;;;;4.72;4.45;;;;;;;;;;5226944;22;20058;-58
2023/06/18 03:32:02;;;;;;;5.25;5.07;;;;;;;;;;5227018;22;20056;-58
2023/06/18 03:34:23;;;;;;;4.82;4.72;;;;;;;;;;5227042;22;20255;-58
2023/06/18 03:36:43;;;;;;;6.05;5.85;;;;;;;;;;5226862;22;20470;-58
2023/06/18 03:39:04;;;;;;;7.43;6.90;;;;;;;;;;5226971;22;20050;-58
2023/06/18 03:41:25;;;;;;;6.38;6.18;;;;;;;;;;5224123;22;20112;-58
2023/06/18 03:43:45;;;;;;;5.43;5.10;;;;;;;;;;5225384;22;20433;-58
2023/06/18 03:46:06;;;;;;;6.78;6.22;;;;;;;;;;5226829;22;20034;-58
2023/06/18 03:48:26;;;;;;;5.75;5.45;;;;;;;;;;5201965;22;20029;-58
2023/06/18 03:50:46;;;;;;;5.30;5.10;;;;;;;;;;5226795;22;20021;-58
2023/06/18 03:53:07;;;;;;;4.95;4.85;;;;;;;;;;5226879;22;20337;-58
2023/06/18 03:55:29;;;;;;;5.38;5.22;;;;;;;;;;5226896;22;20042;-58
2023/06/18 03:57:51;;;;;;;4.78;4.55;;;;;;;;;;5226769;22;20365;-58
2023/06/18 04:00:11;;;;;;;6.10;5.65;;;;;;;;;;5226637;22;20337;-58
2023/06/18 04:02:32;;;;;;;5.75;5.45;;;;;;;;;;5226789;22;20026;-58
2023/06/18 04:04:52;;;;;;;5.45;5.35;;;;;;;;;;5226748;22;20022;-58
2023/06/18 04:07:12;;;;;;;5.53;5.22;;;;;;;;;;5226766;22;20026;-57
2023/06/18 04:09:33;;;;;;;4.95;4.75;;;;;;;;;;5226772;22;20068;-58
2023/06/18 04:11:54;;;;;;;4.95;4.55;;;;;;;;;;5226811;22;20082;-58
2023/06/18 04:14:14;;;;;;;5.30;5.10;;;;;;;;;;5226710;22;20021;-58
2023/06/18 04:16:34;;;;;;;4.57;4.45;;;;;;;;;;5226761;22;20026;-58
2023/06/18 04:18:54;;;;;;;6.20;5.80;;;;;;;;;;5226831;22;20022;-58
2023/06/18 04:21:15;;;;;;;5.57;5.47;;;;;;;;;;5226849;22;20367;-58
2023/06/18 04:23:35;;;;;;;6.55;6.32;;;;;;;;;;5226767;22;20038;-58
2023/06/18 04:25:55;;;;;;;5.13;4.93;;;;;;;;;;5226789;22;20022;-58
2023/06/18 04:28:15;;;;;;;5.60;5.50;;;;;;;;;;5226785;22;20264;-58
2023/06/18 04:30:35;;;;;;;5.38;5.18;;;;;;;;;;5226233;22;20334;-58
2023/06/18 04:32:56;;;;;;;5.90;5.72;;;;;;;;;;5226678;22;20025;-58
2023/06/18 04:35:16;;;;;;;5.53;5.30;;;;;;;;;;5226732;22;20022;-58
2023/06/18 04:37:37;;;;;;;6.53;6.43;;;;;;;;;;5226767;22;20026;-59
2023/06/18 04:39:57;;;;;;;6.13;6.03;;;;;;;;;;5226724;22;20030;-60
2023/06/18 04:42:18;;;;;;;6.10;6.00;;;;;;;;;;5225413;22;20025;-60
2023/06/18 04:44:38;;;;;;;7.22;6.93;;;;;;;;;;5226786;22;20116;-60
2023/06/18 04:46:59;;;;;;;6.03;5.93;;;;;;;;;;5226548;22;20069;-60
2023/06/18 04:49:19;;;;;;;5.03;4.93;;;;;;;;;;5226727;22;20099;-60
2023/06/18 04:51:39;;;;;;;5.93;5.63;;;;;;;;;;5226580;22;20030;-60
2023/06/18 04:53:59;;;;;;;5.68;5.47;;;;;;;;;;5226679;22;20099;-60
2023/06/18 04:56:19;;;;;;;5.95;5.50;;;;;;;;;;5226635;22;20030;-60
2023/06/18 04:58:40;;;;;;;5.45;5.20;;;;;;;;;;5226638;22;20202;-60
2023/06/18 05:01:01;;;;;;;6.05;5.85;;;;;;;;;;5226618;22;20088;-60
2023/06/18 05:03:23;;;;;;;5.22;5.13;;;;;;;;;;5226554;22;20075;-60
2023/06/18 05:05:43;;;;;;;5.75;5.45;;;;;;;;;;5226549;22;20061;-60
2023/06/18 05:08:03;;;;;;;6.05;5.60;;;;;;;;;;5203612;22;20026;-60
2023/06/18 05:10:24;;;;;;;6.13;5.82;;;;;;;;;;5203580;22;20023;-60
2023/06/18 05:12:45;;;;;;;5.78;5.50;;;;;;;;;;5226725;22;20027;-60
2023/06/18 05:15:05;;;;;;;5.35;5.15;;;;;;;;;;5226549;22;20022;-60
2023/06/18 05:17:26;;;;;;;5.30;5.20;;;;;;;;;;5226578;22;20026;-60
2023/06/18 05:19:48;;;;;;;5.82;5.65;;;;;;;;;;5226825;22;20063;-60
2023/06/18 05:22:09;;;;;;;5.43;5.10;;;;;;;;;;5226765;22;20054;-60
2023/06/18 05:24:29;;;;;;;5.65;5.43;;;;;;;;;;5226539;22;20022;-60
2023/06/18 05:26:49;;;;;;;7.45;6.93;;;;;;;;;;5226551;22;20118;-60
2023/06/18 05:29:09;;;;;;;5.60;5.40;;;;;;;;;;5226468;22;20029;-60
2023/06/18 05:31:30;;;;;;;5.60;5.50;;;;;;;;;;5226229;22;20027;-60
2023/06/18 05:33:51;;;;;;;5.20;5.00;;;;;;;;;;5226441;22;20030;-60
2023/06/18 05:36:11;;;;;;;5.47;5.35;;;;;;;;;;5226556;22;20087;-60
2023/06/18 05:38:31;;;;;;;6.03;5.63;;;;;;;;;;5226413;22;20030;-60
2023/06/18 05:40:51;;;;;;;5.03;4.93;;;;;;;;;;5226327;22;20108;-60
2023/06/18 05:43:12;;;;;;;5.43;5.13;;;;;;;;;;5225807;22;20076;-60
2023/06/18 05:45:32;;;;;;;5.35;5.25;;;;;;;;;;5226330;22;20030;-60
2023/06/18 05:47:53;;;;;;;5.90;5.53;;;;;;;;;;5226305;22;20060;-59
2023/06/18 05:50:14;;;;;;;4.88;4.78;;;;;;;;;;5226312;22;20045;-60
2023/06/18 05:52:34;;;;;;;5.28;4.88;;;;;;;;;;5226246;22;20050;-60
2023/06/18 05:54:55;;;;;;;5.32;5.22;;;;;;;;;;5226384;22;20337;-60
2023/06/18 05:57:15;;;;;;;5.63;5.35;;;;;;;;;;5226351;22;20245;-60
2023/06/18 05:59:36;;;;;;;4.85;4.63;;;;;;;;;;5226195;22;20334;-60
2023/06/18 06:01:56;;;;;;;5.22;5.13;;;;;;;;;;5226149;22;20241;-60
2023/06/18 06:04:16;;;;;;;4.18;4.07;;;;;;;;;;5226234;22;20026;-60
2023/06/18 06:06:38;;;;;;;4.90;4.72;;;;;;;;;;5226258;22;20023;-60
2023/06/18 06:08:59;;;;;;;7.32;5.35;;;;;;;;;;5226043;22;20050;-58
2023/06/18 06:11:20;;;;;;;4.32;4.18;;;;;;;;;;5234597;22;20026;-60
2023/06/18 06:13:40;;;;;;;3.97;3.63;;;;;;;;;;5226230;22;20069;-59
2023/06/18 06:16:00;;;;;;;7.40;6.90;;;;;;;;;;5226226;22;20034;-58
2023/06/18 06:18:21;;;;;;;4.47;4.38;;;;;;;;;;5226090;22;20021;-58
2023/06/18 06:20:41;;;;;;;3.10;3.00;;;;;;;;;;5226363;22;20087;-59
2023/06/18 06:23:02;;;;;;;4.25;4.15;;;;;;;;;;5226155;22;20105;-58
2023/06/18 06:25:22;;;;;;;3.85;3.65;;;;;;;;;;5226352;22;20076;-59
2023/06/18 06:27:43;;;;;;;3.88;3.67;;;;;;;;;;5226334;22;20333;-58
2023/06/18 06:30:03;;;;;;;3.92;3.70;;;;;;;;;;5226219;22;20031;-59
2023/06/18 06:32:24;;;;;;;2.78;2.67;;;;;;;;;;5226146;22;20376;-59
2023/06/18 06:34:44;;;;;;;3.53;3.40;;;;;;;;;;5226019;22;20054;-59
2023/06/18 06:37:04;;;;;;;3.30;3.20;;;;;;;;;;5224810;22;20063;-59
2023/06/18 06:39:24;;;;;;;2.70;2.60;;;;;;;;;;5226146;22;20026;-59
2023/06/18 06:41:45;;;;;;;3.30;3.08;;;;;;;;;;5225979;22;20021;-59
2023/06/18 06:44:05;;;;;;;3.90;3.67;;;;;;;;;;5226460;22;20026;-57
2023/06/18 06:46:26;;;;;;;3.17;3.13;;;;;;;;;;5225845;22;20083;-58
2023/06/18 06:48:47;;;;;;;3.53;3.30;;;;;;;;;;5225849;22;20038;-58
2023/06/18 06:51:07;;;;;;;3.15;2.95;;;;;;;;;;5225819;22;20085;-57
2023/06/18 06:53:27;;;;;;;2.90;2.80;;;;;;;;;;5225852;22;20022;-58
2023/06/18 06:55:47;;;;;;;3.67;3.47;;;;;;;;;;5227121;22;20026;-58
2023/06/18 06:58:08;;;;;;;3.03;2.83;;;;;;;;;;5227094;22;20023;-57
2023/06/18 07:00:28;;;;;;;2.67;2.58;;;;;;;;;;5227020;22;20023;-58
2023/06/18 07:02:48;;;;;;;2.55;2.45;;;;;;;;;;5203961;22;20056;-58
2023/06/18 07:05:10;;;;;;;2.40;2.30;;;;;;;;;;5227038;22;20075;-58
2023/06/18 07:07:31;;;;;;;2.33;2.05;;;;;;;;;;5203988;22;20066;-58
2023/06/18 07:09:51;;;;;;;1.58;1.58;;;;;;;;;;5227012;22;20254;-58
2023/06/18 07:12:11;;;;;;;2.10;2.00;;;;;;;;;;5226935;22;20060;-58
2023/06/18 07:14:32;;;;;;;1.85;1.75;;;;;;;;;;5227100;22;20210;-58
2023/06/18 07:16:53;;;;;;;1.85;1.85;;;;;;;;;;5226935;22;20057;-58
2023/06/18 07:19:13;;;;;;;2.28;2.10;;;;;;;;;;5227047;22;20037;-58
2023/06/18 07:21:34;;;;;;;2.15;1.90;;;;;;;;;;5226992;22;20341;-58
2023/06/18 07:23:55;;;;;;;1.55;1.50;;;;;;;;;;5226980;22;20034;-58
2023/06/18 07:26:15;;;;;;;2.05;1.42;;;;;;;;;;5226999;22;20281;-58
2023/06/18 07:28:35;;;;;;;1.38;1.30;;;;;;;;;;5226921;22;20416;-58
2023/06/18 07:30:56;;;;;;;1.85;1.70;;;;;;;;;;5226880;22;20022;-58
2023/06/18 07:33:16;;;;;;;1.55;1.50;;;;;;;;;;5226901;22;20026;-58
2023/06/18 07:35:36;;;;;;;2.22;2.10;;;;;;;;;;5225730;22;20038;-58
2023/06/18 07:37:57;;;;;;;1.50;1.50;;;;;;;;;;5226924;22;20041;-58
2023/06/18 07:40:17;;;;;;;1.52;1.52;;;;;;;;;;5226731;22;20026;-58
2023/06/18 07:42:37;;;;;;;1.73;1.63;;;;;;;;;;5226874;22;20207;-58
2023/06/18 07:44:58;;;;;;;1.52;1.52;;;;;;;;;;5204055;22;20026;-58
2023/06/18 07:47:18;;;;;;;1.48;1.48;;;;;;;;;;5227231;22;20333;-58
2023/06/18 07:49:38;;;;;;;1.50;1.40;;;;;;;;;;5227432;22;20060;-58
2023/06/18 07:51:58;;;;;;;1.40;1.33;;;;;;;;;;5227516;22;20069;-58
2023/06/18 07:54:19;;;;;;;4.30;1.90;;;;;;;;;;5204515;22;20029;-58
2023/06/18 07:56:39;;;;;;;2.47;1.88;;;;;;;;;;5227453;22;20060;-58
2023/06/18 07:59:00;;;;;;;1.70;1.60;;;;;;;;;;5227459;22;20034;-58
2023/06/18 08:01:20;;;;;;;1.33;1.33;;;;;;;;;;5204212;22;20025;-58
2023/06/18 08:03:41;;;;;;;1.65;1.50;;;;;;;;;;5227244;22;20334;-58
2023/06/18 08:06:01;;;;;;;3.08;1.20;;;;;;;;;;5226900;22;20054;-58
2023/06/18 08:08:21;;;;;;;3.22;1.27;;;;;;;;;;5227428;22;20022;-58
2023/06/18 08:10:41;;;;;;;1.10;1.10;;;;;;;;;;5227176;22;20022;-58
2023/06/18 08:13:02;;;;;;;1.23;1.23;;;;;;;;;;5227360;22;20215;-58
2023/06/18 08:15:23;;;;;;;2.28;2.13;;;;;;;;;;5227521;22;20054;-58
2023/06/18 08:17:43;;;;;;;1.23;1.23;;;;;;;;;;5235943;22;20026;-58
2023/06/18 08:20:05;;;;;;;1.20;1.20;;;;;;;;;;5227304;22;20061;-58
2023/06/18 08:22:26;;;;;;;2.93;1.37;;;;;;;;;;5227497;22;20026;-58
2023/06/18 08:24:46;;;;;;;1.25;1.25;;;;;;;;;;5227350;22;20245;-58
2023/06/18 08:27:07;;;;;;;1.30;1.10;;;;;;;;;;5227194;22;20026;-58
2023/06/18 08:29:27;;;;;;;1.10;1.10;;;;;;;;;;5227219;22;20023;-58
2023/06/18 08:31:47;;;;;;;1.23;1.23;;;;;;;;;;5227250;22;20026;-58
2023/06/18 08:34:08;;;;;;;1.10;1.10;;;;;;;;;;5226044;22;20357;-58
2023/06/18 08:36:29;;;;;;;1.30;1.30;;;;;;;;;;5227363;22;20057;-58
2023/06/18 08:38:49;;;;;;;1.10;1.10;;;;;;;;;;5227232;22;20030;-58
2023/06/18 08:41:11;;;;;;;2.05;1.17;;;;;;;;;;5226995;22;20022;-58
2023/06/18 08:43:37;;;;;;;1.35;1.27;;;;;;;;;;5227007;22;20029;-58
2023/06/18 08:45:57;;;;;;;1.98;1.00;;;;;;;;;;5227032;22;20097;-58
2023/06/18 08:48:19;;;;;;;1.23;1.23;;;;;;;;;;5226896;22;20062;-58
2023/06/18 08:50:47;;;;;;;1.63;1.60;;;;;;;;;;5226778;22;20372;-58
2023/06/18 08:53:10;;;;;;;1.00;1.00;;;;;;;;;;5226993;22;20057;-58
2023/06/18 08:55:31;;;;;;;2.45;1.80;;;;;;;;;;5226904;22;20046;-58
2023/06/18 08:58:02;;;;;;;1.02;0.93;;;;;;;;;;5226831;22;20022;-58
2023/06/18 09:00:22;;;;;;;1.10;1.10;;;;;;;;;;5227012;22;20022;-58
2023/06/18 09:02:43;;;;;;;1.23;1.10;;;;;;;;;;5226678;22;20374;-58
2023/06/18 09:05:04;;;;;;;1.45;1.00;;;;;;;;;;5226784;22;20025;-58
2023/06/18 09:07:27;;;;;;;1.10;1.10;;;;;;;;;;5203965;22;20207;-55
2023/06/18 09:09:48;;;;;;;2.25;1.10;;;;;;;;;;5226726;22;20061;-56
2023/06/18 09:12:08;;;;;;;1.00;1.00;;;;;;;;;;5226780;22;20085;-55
2023/06/18 09:14:29;;;;;;;1.08;0.90;;;;;;;;;;5226699;22;20064;-56
2023/06/18 09:16:50;;;;;;;2.60;1.20;;;;;;;;;;5226894;22;20353;-56
2023/06/18 09:19:12;;;;;;;1.10;1.10;;;;;;;;;;5226869;22;20050;-55
2023/06/18 09:21:40;;;;;;;1.48;1.00;;;;;;;;;;5226661;22;20075;-55
2023/06/18 09:24:00;;;;;;;1.30;1.30;;;;;;;;;;5226477;22;20025;-55
2023/06/18 09:26:21;;;;;;;1.77;1.10;;;;;;;;;;5226553;22;20025;-55
2023/06/18 09:28:41;;;;;;;1.00;1.00;;;;;;;;;;5226596;22;20033;-55
2023/06/18 09:31:02;;;;;;;1.10;1.08;;;;;;;;;;5226452;22;20022;-55
2023/06/18 09:33:32;;;;;;;1.15;1.10;;;;;;;;;;5226562;22;20034;-55
2023/06/18 09:35:59;;;;;;;1.30;1.00;;;;;;;;;;5226453;22;20061;-55
2023/06/18 09:38:20;;;;;;;1.90;1.00;;;;;;;;;;5226522;22;20034;-56
2023/06/18 09:40:43;;;;;;;1.08;1.08;;;;;;;;;;5226267;22;20026;-55
2023/06/18 09:43:03;;;;;;;1.00;1.00;;;;;;;;;;5226435;22;20105;-55
2023/06/18 09:45:24;;;;;;;0.90;0.90;;;;;;;;;;5226448;22;20353;-55
2023/06/18 09:47:49;;;;;;;1.23;0.98;;;;;;;;;;5226367;22;20226;-56
2023/06/18 09:50:12;;;;;;;1.38;0.90;;;;;;;;;;5226101;22;20026;-55
2023/06/18 09:52:41;;;;;;;0.90;0.90;;;;;;;;;;5226203;22;20025;-56
2023/06/18 09:55:01;;;;;;;0.90;0.90;;;;;;;;;;5203406;22;20023;-55
2023/06/18 09:57:21;;;;;;;0.90;0.90;;;;;;;;;;5203390;22;20027;-55
2023/06/18 09:59:42;;;;;;;0.80;0.80;;;;;;;;;;5226290;22;20071;-55
2023/06/18 10:02:02;;;;;;;1.10;1.10;;;;;;;;;;5226220;22;20081;-55
2023/06/18 10:04:22;;;;;;;0.80;0.80;;;;;;;;;;5226215;22;20034;-56
2023/06/18 10:07:00;;;;;;;1.88;0.80;;;;;;;;;;5226351;22;20057;-55
2023/06/18 10:09:21;;;;;;;0.90;0.90;;;;;;;;;;5226338;22;20034;-55
2023/06/18 10:11:41;;;;;;;0.85;0.85;;;;;;;;;;5226307;22;20034;-55
2023/06/18 10:14:11;;;;;;;0.80;0.80;;;;;;;;;;5226404;22;20023;-55
2023/06/18 10:16:33;;;;;;;0.80;0.80;;;;;;;;;;5203241;22;20027;-58
2023/06/18 10:19:00;;;;;;;1.50;0.85;;;;;;;;;;5226300;22;20256;-58
2023/06/18 10:21:22;;;;;;;1.30;0.80;;;;;;;;;;5226367;22;20030;-58
2023/06/18 10:23:43;;;;;;;1.08;0.90;;;;;;;;;;5226383;22;20068;-57
2023/06/18 10:26:03;;;;;;;4.22;1.42;;;;;;;;;;5226363;22;20087;-57
2023/06/18 10:28:24;;;;;;;0.80;0.80;;;;;;;;;;5226394;22;20034;-57
2023/06/18 10:30:45;;;;;;;1.52;0.90;;;;;;;;;;5227165;22;20030;-57
2023/06/18 10:33:05;;;;;;;0.90;0.90;;;;;;;;;;5227076;22;20049;-57
2023/06/18 10:35:26;;;;;;;0.80;0.80;;;;;;;;;;5227194;22;20038;-57
2023/06/18 10:37:47;;;;;;;1.13;1.13;;;;;;;;;;5227184;22;20026;-57
2023/06/18 10:40:07;;;;;;;0.80;0.80;;;;;;;;;;5227038;22;20134;-57
2023/06/18 10:42:30;;;;;;;2.58;0.90;;;;;;;;;;5226440;22;20030;-58
2023/06/18 10:44:53;;;;;;;1.02;1.02;;;;;;;;;;5227170;22;20030;-57
2023/06/18 10:47:23;;;;;;;1.10;0.98;;;;;;;;;;5227066;22;20061;-57
2023/06/18 10:50:07;;;;;;;0.90;0.90;;;;;;;;;;5226960;22;20057;-57
2023/06/18 10:52:31;;;;;;;3.42;0.90;;;;;;;;;;5227037;22;20372;-57
2023/06/18 10:54:54;;;;;;;1.95;1.00;;;;;;;;;;5226973;22;20117;-57
2023/06/18 10:57:16;;;;;;;0.98;0.98;;;;;;;;;;5227168;22;20022;-57
2023/06/18 10:59:44;;;;;;;1.05;0.90;;;;;;;;;;5227115;22;20034;-58
2023/06/18 11:02:04;;;;;;;1.25;0.90;;;;;;;;;;5227122;22;20026;-57
2023/06/18 11:04:25;;;;;;;0.90;0.90;;;;;;;;;;5227180;22;20084;-57
2023/06/18 11:06:46;;;;;;;0.85;0.85;;;;;;;;;;5227085;22;20113;-57
2023/06/18 11:09:14;;;;;;;0.90;0.90;;;;;;;;;;5226911;22;20056;-57
2023/06/18 11:11:49;;;;;;;1.60;0.98;;;;;;;;;;5224360;22;20030;-57
2023/06/18 11:14:19;;;;;;;1.33;0.90;;;;;;;;;;5227039;22;20033;-57
2023/06/18 11:16:39;;;;;;;0.80;0.80;;;;;;;;;;5227037;22;20026;-57
2023/06/18 11:19:03;;;;;;;1.55;0.90;;;;;;;;;;5226975;22;20256;-57
2023/06/18 11:21:27;;;;;;;0.80;0.80;;;;;;;;;;5226970;22;20271;-57
2023/06/18 11:23:48;;;;;;;0.80;0.80;;;;;;;;;;5226924;22;20022;-57
2023/06/18 11:26:12;;;;;;;0.90;0.80;;;;;;;;;;5226936;22;20026;-57
2023/06/18 11:28:34;;;;;;;0.95;0.80;;;;;;;;;;5226924;22;20329;-57
2023/06/18 11:30:57;;;;;;;0.80;0.80;;;;;;;;;;5226848;22;20087;-57
2023/06/18 11:33:28;;;;;;;0.70;0.70;;;;;;;;;;5226957;22;20025;-57
2023/06/18 11:35:49;;;;;;;1.33;1.23;;;;;;;;;;5212419;22;20091;-58
2023/06/18 11:38:09;;;;;;;0.70;0.70;;;;;;;;;;5226832;22;20025;-57
2023/06/18 11:40:29;;;;;;;0.88;0.80;;;;;;;;;;5226186;22;20021;-57
2023/06/18 11:42:51;;;;;;;1.52;0.73;;;;;;;;;;5226970;22;20038;-58
2023/06/18 11:45:11;;;;;;;0.80;0.80;;;;;;;;;;5226960;22;20072;-57
2023/06/18 11:47:34;;;;;;;1.35;0.80;;;;;;;;;;5226961;22;20053;-57
2023/06/18 11:49:54;;;;;;;0.90;0.90;;;;;;;;;;5226972;22;20026;-57
2023/06/18 11:52:17;;;;;;;0.70;0.70;;;;;;;;;;5226955;22;20034;-58
2023/06/18 11:54:37;;;;;;;;;;;;;;;;;;5227256;22;20206;-57
2023/06/18 11:56:57;;;;;;;3.42;0.80;;;;;;;;;;5226851;22;20220;-57
2023/06/18 11:59:19;;;;;;;0.98;0.85;;;;;;;;;;5226799;22;20077;-57
2023/06/18 12:01:40;;;;;;;1.02;1.02;;;;;;;;;;5226853;22;20026;-57
2023/06/18 12:04:08;;;;;;;0.80;0.80;;;;;;;;;;5226851;22;20025;-58
2023/06/18 12:06:28;;;;;;;0.70;0.70;;;;;;;;;;5226825;22;20114;-57
2023/06/18 12:08:48;;;;;;;0.70;0.70;;;;;;;;;;5226881;22;20239;-57
2023/06/18 12:11:15;;;;;;;0.82;0.70;;;;;;;;;;5226697;22;20026;-58
2023/06/18 12:13:38;;;;;;;0.80;0.80;;;;;;;;;;5226918;22;20080;-58
2023/06/18 12:16:05;;;;;;;1.58;1.23;;;;;;;;;;5226825;22;20026;-57
2023/06/18 12:18:33;;;;;;;0.80;0.80;;;;;;;;;;5226794;22;20030;-58
2023/06/18 12:20:53;;;;;;;92.63;8.13;;;;;;;;;;5226677;22;20057;-58
2023/06/18 12:23:14;;;;;;;3.13;0.70;;;;;;;;;;5226810;22;20269;-58
2023/06/18 12:25:34;;;;;;;0.77;0.77;;;;;;;;;;5226712;22;20287;-57
2023/06/18 12:27:56;;;;;;;1.40;0.70;;;;;;;;;;5235225;22;20026;-58
2023/06/18 12:30:17;;;;;;;0.70;0.70;;;;;;;;;;5226663;22;20245;-58
2023/06/18 12:32:38;;;;;;;1.83;0.70;;;;;;;;;;5203975;22;20026;-58
2023/06/18 12:35:09;;;;;;;1.45;0.80;;;;;;;;;;5235336;22;20022;-57
2023/06/18 12:37:33;;;;;;;0.90;0.90;;;;;;;;;;5226666;22;20034;-58
2023/06/18 12:40:14;;;;;;;1.25;0.70;;;;;;;;;;5226616;22;20064;-57
2023/06/18 12:42:35;;;;;;;0.60;0.60;;;;;;;;;;5226832;22;20281;-58
2023/06/18 12:44:56;;;;;;;0.60;0.60;;;;;;;;;;5226688;22;20029;-58
2023/06/18 12:47:17;;;;;;;0.70;0.70;;;;;;;;;;5235315;22;20057;-58
2023/06/18 12:49:38;;;;;;;1.75;0.68;;;;;;;;;;5226688;22;20300;-58
2023/06/18 12:51:58;;;;;;;1.65;0.60;;;;;;;;;;5226389;22;20034;-57
2023/06/18 12:54:21;;;;;;;1.63;0.70;;;;;;;;;;5226591;22;20218;-58
2023/06/18 12:56:49;;;;;;;0.95;0.70;;;;;;;;;;5226692;22;20064;-58
2023/06/18 12:59:16;;;;;;;0.70;0.70;;;;;;;;;;5226708;22;20030;-58
2023/06/18 13:01:38;;;;;;;0.70;0.70;;;;;;;;;;5226773;22;20030;-58
2023/06/18 13:03:59;;;;;;;0.60;0.60;;;;;;;;;;5203744;22;20406;-58
2023/06/18 13:06:20;;;;;;;0.68;0.68;;;;;;;;;;5226699;22;20022;-59
2023/06/18 13:08:40;;;;;;;0.60;0.60;;;;;;;;;;5225505;22;20026;-58
2023/06/18 13:11:02;;;;;;;0.70;0.70;;;;;;;;;;5226647;22;20063;-57
2023/06/18 13:13:23;;;;;;;1.65;0.60;;;;;;;;;;5226821;22;20075;-58
2023/06/18 13:15:45;;;;;;;0.70;0.70;;;;;;;;;;5226894;22;20023;-58
2023/06/18 13:18:06;;;;;;;1.02;1.02;;;;;;;;;;5226688;22;20033;-58
2023/06/18 13:20:27;;;;;;;0.70;0.70;;;;;;;;;;5226785;22;20333;-58
2023/06/18 13:22:47;;;;;;;0.70;0.70;;;;;;;;;;5226631;22;20214;-58
2023/06/18 13:25:09;;;;;;;0.70;0.70;;;;;;;;;;5226722;22;20211;-58
2023/06/18 13:27:30;;;;;;;0.68;0.68;;;;;;;;;;5226666;22;20067;-58
2023/06/18 13:29:50;;;;;;;0.63;0.63;;;;;;;;;;5226628;22;20026;-57
2023/06/18 13:32:11;;;;;;;0.70;0.70;;;;;;;;;;5226703;22;20072;-58
2023/06/18 13:34:33;;;;;;;0.75;0.70;;;;;;;;;;5226521;22;20045;-58
2023/06/18 13:36:53;;;;;;;;;;;;;;;;;;5227158;22;20025;-58
2023/06/18 13:39:13;;;;;;;0.70;0.70;;;;;;;;;;5226759;22;19963;-58
2023/06/18 13:41:35;;;;;;;0.90;0.70;;;;;;;;;;5226463;22;20022;-58
2023/06/18 13:43:55;;;;;;;0.70;0.70;;;;;;;;;;5226447;22;20034;-58
2023/06/18 13:46:16;;;;;;;0.60;0.60;;;;;;;;;;5226585;22;20022;-58
2023/06/18 13:48:36;;;;;;;1.95;0.90;;;;;;;;;;5226475;22;20057;-58
2023/06/18 13:50:56;;;;;;;0.70;0.70;;;;;;;;;;5226201;22;20022;-58
2023/06/18 13:53:17;;;;;;;0.80;0.80;;;;;;;;;;5226445;22;20026;-57
2023/06/18 13:55:37;;;;;;;1.67;0.70;;;;;;;;;;5226558;22;20022;-58
2023/06/18 13:57:58;;;;;;;0.70;0.70;;;;;;;;;;5226388;22;20034;-58
2023/06/18 14:00:19;;;;;;;0.70;0.70;;;;;;;;;;5226410;22;20021;-57
2023/06/18 14:02:40;;;;;;;1.48;0.70;;;;;;;;;;5224559;22;20075;-57
2023/06/18 14:05:00;;;;;;;0.80;0.75;;;;;;;;;;5225922;22;20056;-58
2023/06/18 14:07:21;;;;;;;0.80;0.80;;;;;;;;;;5226411;22;20026;-57
2023/06/18 14:09:41;;;;;;;1.20;0.80;;;;;;;;;;5226548;22;20038;-58